sensor_id;sensor_type;location;lat;lon;timestamp;temperature;humidity
35894;DHT22;21994;48.204;16.516;2023-05-29T00:00:43;11.30;99.90
35894;DHT22;21994;48.204;16.516;2023-05-29T00:03:10;11.30;99.90
35894;DHT22;21994;48.204;16.516;2023-05-29T00:05:35;11.30;99.90
35894;DHT22;21994;48.204;16.516;2023-05-29T00:08:02;11.20;99.90
35894;DHT22;21994;48.204;16.516;2023-05-29T00:10:27;11.20;99.90
35894;DHT22;21994;48.204;16.516;2023-05-29T00:12:53;11.10;99.90
35894;DHT22;21994;48.204;16.516;2023-05-29T00:15:21;11.10;99.90
35894;DHT22;21994;48.204;16.516;2023-05-29T00:17:47;11.10;99.90
35894;DHT22;21994;48.204;16.516;2023-05-29T00:20:14;11.10;99.90
35894;DHT22;21994;48.204;16.516;2023-05-29T00:22:40;11.00;99.90
35894;DHT22;21994;48.204;16.516;2023-05-29T00:25:08;11.00;99.90
35894;DHT22;21994;48.204;16.516;2023-05-29T00:27:34;10.90;99.90
35894;DHT22;21994;48.204;16.516;2023-05-29T00:30:02;10.90;99.90
35894;DHT22;21994;48.204;16.516;2023-05-29T00:32:28;10.90;99.90
35894;DHT22;21994;48.204;16.516;2023-05-29T00:34:55;10.80;99.90
35894;DHT22;21994;48.204;16.516;2023-05-29T00:37:21;10.70;99.90
35894;DHT22;21994;48.204;16.516;2023-05-29T00:39:48;10.70;99.90
35894;DHT22;21994;48.204;16.516;2023-05-29T00:42:14;10.70;99.90
35894;DHT22;21994;48.204;16.516;2023-05-29T00:44:40;10.70;99.90
35894;DHT22;21994;48.204;16.516;2023-05-29T00:47:07;10.70;99.90
35894;DHT22;21994;48.204;16.516;2023-05-29T00:49:34;10.60;99.90
35894;DHT22;21994;48.204;16.516;2023-05-29T00:52:02;10.60;99.90
35894;DHT22;21994;48.204;16.516;2023-05-29T00:54:29;10.60;99.90
35894;DHT22;21994;48.204;16.516;2023-05-29T00:56:57;10.50;99.90
35894;DHT22;21994;48.204;16.516;2023-05-29T00:59:25;10.50;99.90
35894;DHT22;21994;48.204;16.516;2023-05-29T01:01:52;10.50;99.90
35894;DHT22;21994;48.204;16.516;2023-05-29T01:04:20;10.40;99.90
35894;DHT22;21994;48.204;16.516;2023-05-29T01:06:46;10.40;99.90
35894;DHT22;21994;48.204;16.516;2023-05-29T01:09:12;10.30;99.90
35894;DHT22;21994;48.204;16.516;2023-05-29T01:18:39;10.20;99.90
35894;DHT22;21994;48.204;16.516;2023-05-29T01:24:26;10.10;99.90
35894;DHT22;21994;48.204;16.516;2023-05-29T01:27:02;10.10;99.90
35894;DHT22;21994;48.204;16.516;2023-05-29T01:29:49;10.10;99.90
35894;DHT22;21994;48.204;16.516;2023-05-29T01:32:22;10.00;99.90
35894;DHT22;21994;48.204;16.516;2023-05-29T01:34:48;10.00;99.90
35894;DHT22;21994;48.204;16.516;2023-05-29T01:37:14;10.00;99.90
35894;DHT22;21994;48.204;16.516;2023-05-29T01:39:40;9.90;99.90
35894;DHT22;21994;48.204;16.516;2023-05-29T01:42:08;9.90;99.90
35894;DHT22;21994;48.204;16.516;2023-05-29T01:44:35;9.90;99.90
35894;DHT22;21994;48.204;16.516;2023-05-29T01:47:02;9.90;99.90
35894;DHT22;21994;48.204;16.516;2023-05-29T01:49:29;9.90;99.90
35894;DHT22;21994;48.204;16.516;2023-05-29T01:51:57;9.80;99.90
35894;DHT22;21994;48.204;16.516;2023-05-29T01:54:23;9.80;99.90
35894;DHT22;21994;48.204;16.516;2023-05-29T01:56:50;9.80;99.90
35894;DHT22;21994;48.204;16.516;2023-05-29T01:59:17;9.80;99.90
35894;DHT22;21994;48.204;16.516;2023-05-29T02:01:43;9.70;99.90
35894;DHT22;21994;48.204;16.516;2023-05-29T02:04:09;9.70;99.90
35894;DHT22;21994;48.204;16.516;2023-05-29T02:06:34;9.70;99.90
35894;DHT22;21994;48.204;16.516;2023-05-29T02:09:00;9.60;99.90
35894;DHT22;21994;48.204;16.516;2023-05-29T02:11:26;9.60;99.90
35894;DHT22;21994;48.204;16.516;2023-05-29T02:13:52;9.60;99.90
35894;DHT22;21994;48.204;16.516;2023-05-29T02:16:19;9.50;99.90
35894;DHT22;21994;48.204;16.516;2023-05-29T02:18:46;9.50;99.90
35894;DHT22;21994;48.204;16.516;2023-05-29T02:21:12;9.50;99.90
35894;DHT22;21994;48.204;16.516;2023-05-29T02:23:38;9.50;99.90
35894;DHT22;21994;48.204;16.516;2023-05-29T02:26:04;9.50;99.90
35894;DHT22;21994;48.204;16.516;2023-05-29T02:28:30;9.40;99.90
35894;DHT22;21994;48.204;16.516;2023-05-29T02:30:56;9.40;99.90
35894;DHT22;21994;48.204;16.516;2023-05-29T02:33:22;9.40;99.90
35894;DHT22;21994;48.204;16.516;2023-05-29T02:35:48;9.40;99.90
35894;DHT22;21994;48.204;16.516;2023-05-29T02:38:14;9.50;99.90
35894;DHT22;21994;48.204;16.516;2023-05-29T02:40:40;9.40;99.90
35894;DHT22;21994;48.204;16.516;2023-05-29T02:43:08;9.40;99.90
35894;DHT22;21994;48.204;16.516;2023-05-29T02:45:37;9.40;99.90
35894;DHT22;21994;48.204;16.516;2023-05-29T02:48:03;9.40;99.90
35894;DHT22;21994;48.204;16.516;2023-05-29T02:50:29;9.40;99.90
35894;DHT22;21994;48.204;16.516;2023-05-29T02:52:55;9.40;99.90
35894;DHT22;21994;48.204;16.516;2023-05-29T02:55:21;9.30;99.90
35894;DHT22;21994;48.204;16.516;2023-05-29T02:57:47;9.30;99.90
35894;DHT22;21994;48.204;16.516;2023-05-29T03:00:15;9.20;99.90
35894;DHT22;21994;48.204;16.516;2023-05-29T03:02:41;9.20;99.90
35894;DHT22;21994;48.204;16.516;2023-05-29T03:05:07;9.20;99.90
35894;DHT22;21994;48.204;16.516;2023-05-29T03:07:33;9.20;99.90
35894;DHT22;21994;48.204;16.516;2023-05-29T03:09:59;9.20;99.90
35894;DHT22;21994;48.204;16.516;2023-05-29T03:12:25;9.10;99.90
35894;DHT22;21994;48.204;16.516;2023-05-29T03:14:53;9.10;99.90
35894;DHT22;21994;48.204;16.516;2023-05-29T03:17:19;9.10;99.90
35894;DHT22;21994;48.204;16.516;2023-05-29T03:19:46;9.10;99.90
35894;DHT22;21994;48.204;16.516;2023-05-29T03:22:12;9.10;99.90
35894;DHT22;21994;48.204;16.516;2023-05-29T03:24:37;9.00;99.90
35894;DHT22;21994;48.204;16.516;2023-05-29T03:27:04;9.00;99.90
35894;DHT22;21994;48.204;16.516;2023-05-29T03:29:33;9.00;99.90
35894;DHT22;21994;48.204;16.516;2023-05-29T03:31:59;9.10;99.90
35894;DHT22;21994;48.204;16.516;2023-05-29T03:34:25;9.10;99.90
35894;DHT22;21994;48.204;16.516;2023-05-29T03:36:52;9.10;99.90
35894;DHT22;21994;48.204;16.516;2023-05-29T03:39:18;9.10;99.90
35894;DHT22;21994;48.204;16.516;2023-05-29T03:41:44;9.10;99.90
35894;DHT22;21994;48.204;16.516;2023-05-29T03:44:10;9.10;99.90
35894;DHT22;21994;48.204;16.516;2023-05-29T03:46:36;9.10;99.90
35894;DHT22;21994;48.204;16.516;2023-05-29T03:49:02;9.10;99.90
35894;DHT22;21994;48.204;16.516;2023-05-29T03:51:28;9.10;99.90
35894;DHT22;21994;48.204;16.516;2023-05-29T03:53:54;9.20;99.90
35894;DHT22;21994;48.204;16.516;2023-05-29T03:56:20;9.30;99.90
35894;DHT22;21994;48.204;16.516;2023-05-29T03:58:47;9.40;99.90
35894;DHT22;21994;48.204;16.516;2023-05-29T04:01:12;9.30;99.90
35894;DHT22;21994;48.204;16.516;2023-05-29T04:03:38;9.40;99.90
35894;DHT22;21994;48.204;16.516;2023-05-29T04:06:04;9.40;99.90
35894;DHT22;21994;48.204;16.516;2023-05-29T04:08:40;9.40;99.90
35894;DHT22;21994;48.204;16.516;2023-05-29T04:11:06;9.40;99.90
35894;DHT22;21994;48.204;16.516;2023-05-29T04:13:33;9.50;99.90
35894;DHT22;21994;48.204;16.516;2023-05-29T04:15:59;9.50;99.90
35894;DHT22;21994;48.204;16.516;2023-05-29T04:18:24;9.50;99.90
35894;DHT22;21994;48.204;16.516;2023-05-29T04:20:51;9.70;99.90
35894;DHT22;21994;48.204;16.516;2023-05-29T04:23:17;9.90;99.90
35894;DHT22;21994;48.204;16.516;2023-05-29T04:25:43;10.00;99.90
35894;DHT22;21994;48.204;16.516;2023-05-29T04:28:09;10.20;99.90
35894;DHT22;21994;48.204;16.516;2023-05-29T04:30:38;10.40;99.90
35894;DHT22;21994;48.204;16.516;2023-05-29T04:33:05;10.50;99.90
35894;DHT22;21994;48.204;16.516;2023-05-29T04:35:31;10.60;99.90
35894;DHT22;21994;48.204;16.516;2023-05-29T04:37:57;10.70;99.90
35894;DHT22;21994;48.204;16.516;2023-05-29T04:40:23;10.80;99.90
35894;DHT22;21994;48.204;16.516;2023-05-29T04:42:49;10.90;99.90
35894;DHT22;21994;48.204;16.516;2023-05-29T04:45:15;10.90;99.90
35894;DHT22;21994;48.204;16.516;2023-05-29T04:47:41;11.10;99.90
35894;DHT22;21994;48.204;16.516;2023-05-29T04:50:14;11.20;99.90
35894;DHT22;21994;48.204;16.516;2023-05-29T04:52:42;11.40;99.90
35894;DHT22;21994;48.204;16.516;2023-05-29T04:55:08;11.60;99.90
35894;DHT22;21994;48.204;16.516;2023-05-29T04:57:35;11.80;99.90
35894;DHT22;21994;48.204;16.516;2023-05-29T05:00:05;12.00;99.90
35894;DHT22;21994;48.204;16.516;2023-05-29T05:02:32;12.20;99.90
35894;DHT22;21994;48.204;16.516;2023-05-29T05:04:58;12.40;99.90
35894;DHT22;21994;48.204;16.516;2023-05-29T05:07:25;12.50;99.90
35894;DHT22;21994;48.204;16.516;2023-05-29T05:09:51;12.70;99.90
35894;DHT22;21994;48.204;16.516;2023-05-29T05:12:17;12.80;99.90
35894;DHT22;21994;48.204;16.516;2023-05-29T05:14:43;13.00;99.90
35894;DHT22;21994;48.204;16.516;2023-05-29T05:17:08;13.10;99.90
35894;DHT22;21994;48.204;16.516;2023-05-29T05:19:34;13.30;99.90
35894;DHT22;21994;48.204;16.516;2023-05-29T05:22:00;13.40;99.90
35894;DHT22;21994;48.204;16.516;2023-05-29T05:24:26;13.60;99.90
35894;DHT22;21994;48.204;16.516;2023-05-29T05:26:52;13.80;99.90
35894;DHT22;21994;48.204;16.516;2023-05-29T05:29:18;14.10;99.90
35894;DHT22;21994;48.204;16.516;2023-05-29T05:31:45;14.20;99.90
35894;DHT22;21994;48.204;16.516;2023-05-29T05:34:11;14.30;99.90
35894;DHT22;21994;48.204;16.516;2023-05-29T05:36:37;14.40;99.90
35894;DHT22;21994;48.204;16.516;2023-05-29T05:39:03;14.50;99.90
35894;DHT22;21994;48.204;16.516;2023-05-29T05:41:29;14.60;99.90
35894;DHT22;21994;48.204;16.516;2023-05-29T05:43:55;14.70;99.90
35894;DHT22;21994;48.204;16.516;2023-05-29T05:46:21;14.70;99.90
35894;DHT22;21994;48.204;16.516;2023-05-29T05:48:47;14.80;99.90
35894;DHT22;21994;48.204;16.516;2023-05-29T05:51:13;14.90;99.90
35894;DHT22;21994;48.204;16.516;2023-05-29T05:53:39;15.00;99.90
35894;DHT22;21994;48.204;16.516;2023-05-29T05:56:05;15.20;99.90
35894;DHT22;21994;48.204;16.516;2023-05-29T05:58:31;15.30;99.90
35894;DHT22;21994;48.204;16.516;2023-05-29T06:00:57;15.30;99.90
35894;DHT22;21994;48.204;16.516;2023-05-29T06:03:23;15.30;99.90
35894;DHT22;21994;48.204;16.516;2023-05-29T06:05:50;15.40;99.90
35894;DHT22;21994;48.204;16.516;2023-05-29T06:08:17;15.50;99.90
35894;DHT22;21994;48.204;16.516;2023-05-29T06:10:43;15.60;99.90
35894;DHT22;21994;48.204;16.516;2023-05-29T06:13:09;15.70;99.90
35894;DHT22;21994;48.204;16.516;2023-05-29T06:15:35;15.80;99.90
35894;DHT22;21994;48.204;16.516;2023-05-29T06:18:01;15.80;99.90
35894;DHT22;21994;48.204;16.516;2023-05-29T06:20:28;15.90;99.90
35894;DHT22;21994;48.204;16.516;2023-05-29T06:22:55;15.90;99.90
35894;DHT22;21994;48.204;16.516;2023-05-29T06:25:21;16.10;99.90
35894;DHT22;21994;48.204;16.516;2023-05-29T06:27:47;16.20;99.90
35894;DHT22;21994;48.204;16.516;2023-05-29T06:30:13;16.40;99.90
35894;DHT22;21994;48.204;16.516;2023-05-29T06:32:39;16.40;99.90
35894;DHT22;21994;48.204;16.516;2023-05-29T06:35:06;16.40;99.90
35894;DHT22;21994;48.204;16.516;2023-05-29T06:37:32;16.40;99.90
35894;DHT22;21994;48.204;16.516;2023-05-29T06:39:58;16.40;99.90
35894;DHT22;21994;48.204;16.516;2023-05-29T06:42:24;16.50;99.90
35894;DHT22;21994;48.204;16.516;2023-05-29T06:44:50;16.60;99.90
35894;DHT22;21994;48.204;16.516;2023-05-29T06:47:16;16.70;99.90
35894;DHT22;21994;48.204;16.516;2023-05-29T06:49:42;16.90;99.90
35894;DHT22;21994;48.204;16.516;2023-05-29T06:52:08;16.90;99.90
35894;DHT22;21994;48.204;16.516;2023-05-29T06:54:34;17.10;99.90
35894;DHT22;21994;48.204;16.516;2023-05-29T06:56:59;17.20;99.90
35894;DHT22;21994;48.204;16.516;2023-05-29T06:59:25;17.30;99.90
35894;DHT22;21994;48.204;16.516;2023-05-29T07:01:51;17.60;99.90
35894;DHT22;21994;48.204;16.516;2023-05-29T07:04:17;17.80;99.90
35894;DHT22;21994;48.204;16.516;2023-05-29T07:06:43;18.00;99.00
35894;DHT22;21994;48.204;16.516;2023-05-29T07:09:09;18.10;98.30
35894;DHT22;21994;48.204;16.516;2023-05-29T07:11:35;18.20;98.50
35894;DHT22;21994;48.204;16.516;2023-05-29T07:14:00;18.40;98.50
35894;DHT22;21994;48.204;16.516;2023-05-29T07:16:27;18.60;97.90
35894;DHT22;21994;48.204;16.516;2023-05-29T07:18:52;18.60;99.00
35894;DHT22;21994;48.204;16.516;2023-05-29T07:21:18;18.80;99.00
35894;DHT22;21994;48.204;16.516;2023-05-29T07:23:48;19.00;97.00
35894;DHT22;21994;48.204;16.516;2023-05-29T07:26:15;19.20;96.70
35894;DHT22;21994;48.204;16.516;2023-05-29T07:28:41;19.20;96.50
35894;DHT22;21994;48.204;16.516;2023-05-29T07:31:07;19.20;96.70
35894;DHT22;21994;48.204;16.516;2023-05-29T07:33:34;19.30;97.70
35894;DHT22;21994;48.204;16.516;2023-05-29T07:36:00;19.40;97.40
35894;DHT22;21994;48.204;16.516;2023-05-29T07:38:26;19.70;97.10
35894;DHT22;21994;48.204;16.516;2023-05-29T07:40:52;19.80;96.50
35894;DHT22;21994;48.204;16.516;2023-05-29T07:43:18;19.80;96.30
35894;DHT22;21994;48.204;16.516;2023-05-29T07:45:44;20.00;95.80
35894;DHT22;21994;48.204;16.516;2023-05-29T07:48:09;20.20;95.50
35894;DHT22;21994;48.204;16.516;2023-05-29T07:50:35;20.30;96.90
35894;DHT22;21994;48.204;16.516;2023-05-29T07:53:02;20.50;96.00
35894;DHT22;21994;48.204;16.516;2023-05-29T07:55:28;20.70;96.20
35894;DHT22;21994;48.204;16.516;2023-05-29T07:57:54;20.40;94.20
35894;DHT22;21994;48.204;16.516;2023-05-29T08:00:20;20.60;93.70
35894;DHT22;21994;48.204;16.516;2023-05-29T08:02:46;20.70;93.90
35894;DHT22;21994;48.204;16.516;2023-05-29T08:05:12;20.60;94.60
35894;DHT22;21994;48.204;16.516;2023-05-29T08:07:39;21.00;94.80
35894;DHT22;21994;48.204;16.516;2023-05-29T08:10:05;20.90;94.20
35894;DHT22;21994;48.204;16.516;2023-05-29T08:12:31;21.00;95.40
35894;DHT22;21994;48.204;16.516;2023-05-29T08:14:59;21.20;94.30
35894;DHT22;21994;48.204;16.516;2023-05-29T08:17:26;21.50;93.90
35894;DHT22;21994;48.204;16.516;2023-05-29T08:19:53;21.50;94.10
35894;DHT22;21994;48.204;16.516;2023-05-29T08:22:19;21.60;93.90
35894;DHT22;21994;48.204;16.516;2023-05-29T08:24:45;21.80;94.40
35894;DHT22;21994;48.204;16.516;2023-05-29T08:27:11;21.90;93.50
35894;DHT22;21994;48.204;16.516;2023-05-29T08:29:36;21.90;94.10
35894;DHT22;21994;48.204;16.516;2023-05-29T08:32:04;21.70;93.10
35894;DHT22;21994;48.204;16.516;2023-05-29T08:34:30;21.60;94.20
35894;DHT22;21994;48.204;16.516;2023-05-29T08:36:56;21.60;93.10
35894;DHT22;21994;48.204;16.516;2023-05-29T08:39:22;21.50;93.00
35894;DHT22;21994;48.204;16.516;2023-05-29T08:42:04;21.50;93.50
35894;DHT22;21994;48.204;16.516;2023-05-29T08:44:47;21.60;94.20
35894;DHT22;21994;48.204;16.516;2023-05-29T08:47:17;21.50;93.00
35894;DHT22;21994;48.204;16.516;2023-05-29T08:49:51;21.50;93.70
35894;DHT22;21994;48.204;16.516;2023-05-29T08:52:25;21.50;94.20
35894;DHT22;21994;48.204;16.516;2023-05-29T08:54:55;21.40;94.70
35894;DHT22;21994;48.204;16.516;2023-05-29T08:57:22;21.50;94.00
35894;DHT22;21994;48.204;16.516;2023-05-29T08:59:51;21.50;94.90
35894;DHT22;21994;48.204;16.516;2023-05-29T09:02:17;21.40;94.50
35894;DHT22;21994;48.204;16.516;2023-05-29T09:04:43;21.60;96.00
35894;DHT22;21994;48.204;16.516;2023-05-29T09:07:18;21.70;95.00
35894;DHT22;21994;48.204;16.516;2023-05-29T09:09:45;21.90;94.70
35894;DHT22;21994;48.204;16.516;2023-05-29T09:12:12;22.10;93.50
35894;DHT22;21994;48.204;16.516;2023-05-29T09:14:45;22.30;95.30
35894;DHT22;21994;48.204;16.516;2023-05-29T09:17:12;22.50;94.10
35894;DHT22;21994;48.204;16.516;2023-05-29T09:19:39;22.50;94.50
35894;DHT22;21994;48.204;16.516;2023-05-29T09:22:07;22.80;95.00
35894;DHT22;21994;48.204;16.516;2023-05-29T09:24:36;22.90;93.90
35894;DHT22;21994;48.204;16.516;2023-05-29T09:27:04;23.10;93.10
35894;DHT22;21994;48.204;16.516;2023-05-29T09:29:40;23.10;93.20
35894;DHT22;21994;48.204;16.516;2023-05-29T09:32:32;23.00;93.30
35894;DHT22;21994;48.204;16.516;2023-05-29T09:35:00;23.10;94.20
35894;DHT22;21994;48.204;16.516;2023-05-29T09:37:26;23.40;92.60
35894;DHT22;21994;48.204;16.516;2023-05-29T09:39:52;23.70;92.70
35894;DHT22;21994;48.204;16.516;2023-05-29T09:42:18;23.80;92.70
35894;DHT22;21994;48.204;16.516;2023-05-29T09:44:54;23.90;92.30
35894;DHT22;21994;48.204;16.516;2023-05-29T09:47:21;24.20;92.80
35894;DHT22;21994;48.204;16.516;2023-05-29T09:49:47;24.40;90.70
35894;DHT22;21994;48.204;16.516;2023-05-29T09:52:14;24.50;91.30
35894;DHT22;21994;48.204;16.516;2023-05-29T09:54:42;24.60;90.20
35894;DHT22;21994;48.204;16.516;2023-05-29T09:57:13;24.60;92.20
35894;DHT22;21994;48.204;16.516;2023-05-29T09:59:45;24.50;90.90
35894;DHT22;21994;48.204;16.516;2023-05-29T10:02:16;24.60;91.30
35894;DHT22;21994;48.204;16.516;2023-05-29T10:04:43;24.70;90.80
35894;DHT22;21994;48.204;16.516;2023-05-29T10:07:15;25.00;87.80
35894;DHT22;21994;48.204;16.516;2023-05-29T10:09:44;25.30;90.20
35894;DHT22;21994;48.204;16.516;2023-05-29T10:12:16;25.60;89.00
35894;DHT22;21994;48.204;16.516;2023-05-29T10:14:49;25.80;83.00
35894;DHT22;21994;48.204;16.516;2023-05-29T10:17:18;26.20;85.30
35894;DHT22;21994;48.204;16.516;2023-05-29T10:19:48;26.40;81.60
35894;DHT22;21994;48.204;16.516;2023-05-29T10:22:19;26.80;81.90
35894;DHT22;21994;48.204;16.516;2023-05-29T10:24:48;27.20;84.00
35894;DHT22;21994;48.204;16.516;2023-05-29T10:27:16;27.90;80.50
35894;DHT22;21994;48.204;16.516;2023-05-29T10:35:43;28.80;75.60
35894;DHT22;21994;48.204;16.516;2023-05-29T10:38:12;29.40;77.00
35894;DHT22;21994;48.204;16.516;2023-05-29T10:40:40;30.00;71.90
35894;DHT22;21994;48.204;16.516;2023-05-29T10:43:06;29.60;70.60
35894;DHT22;21994;48.204;16.516;2023-05-29T10:53:06;30.30;69.40
35894;DHT22;21994;48.204;16.516;2023-05-29T10:55:36;30.50;70.30
35894;DHT22;21994;48.204;16.516;2023-05-29T10:58:14;30.20;67.50
35894;DHT22;21994;48.204;16.516;2023-05-29T11:00:45;30.10;70.60
35894;DHT22;21994;48.204;16.516;2023-05-29T11:03:22;30.30;68.70
35894;DHT22;21994;48.204;16.516;2023-05-29T11:06:06;30.30;75.70
35894;DHT22;21994;48.204;16.516;2023-05-29T11:08:45;30.20;67.30
35894;DHT22;21994;48.204;16.516;2023-05-29T11:11:33;30.10;68.70
35894;DHT22;21994;48.204;16.516;2023-05-29T11:14:06;30.10;69.10
35894;DHT22;21994;48.204;16.516;2023-05-29T11:19:03;29.80;69.40
35894;DHT22;21994;48.204;16.516;2023-05-29T11:24:32;29.70;70.10
35894;DHT22;21994;48.204;16.516;2023-05-29T11:26:58;29.80;70.00
35894;DHT22;21994;48.204;16.516;2023-05-29T11:29:30;29.50;66.60
35894;DHT22;21994;48.204;16.516;2023-05-29T11:32:02;29.20;66.00
35894;DHT22;21994;48.204;16.516;2023-05-29T11:34:30;28.80;67.70
35894;DHT22;21994;48.204;16.516;2023-05-29T11:36:58;28.50;69.00
35894;DHT22;21994;48.204;16.516;2023-05-29T11:39:25;28.30;69.70
35894;DHT22;21994;48.204;16.516;2023-05-29T11:41:51;28.20;69.00
35894;DHT22;21994;48.204;16.516;2023-05-29T11:44:24;28.20;70.70
35894;DHT22;21994;48.204;16.516;2023-05-29T11:47:07;28.20;71.20
35894;DHT22;21994;48.204;16.516;2023-05-29T11:49:36;28.40;77.10
35894;DHT22;21994;48.204;16.516;2023-05-29T11:52:10;28.50;69.50
35894;DHT22;21994;48.204;16.516;2023-05-29T11:54:40;28.50;69.70
35894;DHT22;21994;48.204;16.516;2023-05-29T11:57:18;28.70;68.90
35894;DHT22;21994;48.204;16.516;2023-05-29T11:59:45;28.30;69.80
35894;DHT22;21994;48.204;16.516;2023-05-29T12:02:11;28.40;72.40
35894;DHT22;21994;48.204;16.516;2023-05-29T12:04:37;28.50;68.20
35894;DHT22;21994;48.204;16.516;2023-05-29T12:07:17;28.30;67.50
35894;DHT22;21994;48.204;16.516;2023-05-29T12:09:45;28.20;67.50
35894;DHT22;21994;48.204;16.516;2023-05-29T12:12:13;28.10;68.50
35894;DHT22;21994;48.204;16.516;2023-05-29T12:14:39;28.30;70.40
35894;DHT22;21994;48.204;16.516;2023-05-29T12:17:05;28.80;67.60
35894;DHT22;21994;48.204;16.516;2023-05-29T12:19:31;28.20;68.00
35894;DHT22;21994;48.204;16.516;2023-05-29T12:21:57;28.30;67.50
35894;DHT22;21994;48.204;16.516;2023-05-29T12:24:23;28.40;69.20
35894;DHT22;21994;48.204;16.516;2023-05-29T12:26:49;28.80;72.00
35894;DHT22;21994;48.204;16.516;2023-05-29T12:29:16;29.10;65.30
35894;DHT22;21994;48.204;16.516;2023-05-29T12:31:42;29.30;68.20
35894;DHT22;21994;48.204;16.516;2023-05-29T12:34:10;29.20;67.60
35894;DHT22;21994;48.204;16.516;2023-05-29T12:36:41;29.00;70.00
35894;DHT22;21994;48.204;16.516;2023-05-29T12:39:08;28.60;69.30
35894;DHT22;21994;48.204;16.516;2023-05-29T12:41:35;28.50;69.20
35894;DHT22;21994;48.204;16.516;2023-05-29T12:44:03;28.40;68.40
35894;DHT22;21994;48.204;16.516;2023-05-29T12:46:42;28.30;68.80
35894;DHT22;21994;48.204;16.516;2023-05-29T12:49:16;28.40;67.80
35894;DHT22;21994;48.204;16.516;2023-05-29T12:51:44;28.40;70.50
35894;DHT22;21994;48.204;16.516;2023-05-29T12:54:11;28.60;71.00
35894;DHT22;21994;48.204;16.516;2023-05-29T12:56:38;28.90;67.70
35894;DHT22;21994;48.204;16.516;2023-05-29T12:59:10;28.80;67.20
35894;DHT22;21994;48.204;16.516;2023-05-29T13:01:37;29.00;69.30
35894;DHT22;21994;48.204;16.516;2023-05-29T13:04:07;28.70;66.00
35894;DHT22;21994;48.204;16.516;2023-05-29T13:06:37;28.70;63.70
35894;DHT22;21994;48.204;16.516;2023-05-29T13:09:04;28.80;65.70
35894;DHT22;21994;48.204;16.516;2023-05-29T13:11:30;28.80;65.80
35894;DHT22;21994;48.204;16.516;2023-05-29T13:13:57;28.60;66.40
35894;DHT22;21994;48.204;16.516;2023-05-29T13:16:23;28.90;65.20
35894;DHT22;21994;48.204;16.516;2023-05-29T13:18:49;29.00;67.90
35894;DHT22;21994;48.204;16.516;2023-05-29T13:21:14;28.90;65.00
35894;DHT22;21994;48.204;16.516;2023-05-29T13:23:40;29.00;72.50
35894;DHT22;21994;48.204;16.516;2023-05-29T13:26:06;29.30;68.10
35894;DHT22;21994;48.204;16.516;2023-05-29T13:28:33;29.50;68.70
35894;DHT22;21994;48.204;16.516;2023-05-29T13:30:59;29.80;64.90
35894;DHT22;21994;48.204;16.516;2023-05-29T13:33:25;29.70;63.70
35894;DHT22;21994;48.204;16.516;2023-05-29T13:35:51;29.60;63.50
35894;DHT22;21994;48.204;16.516;2023-05-29T13:38:17;28.80;65.00
35894;DHT22;21994;48.204;16.516;2023-05-29T13:40:42;28.90;69.50
35894;DHT22;21994;48.204;16.516;2023-05-29T13:43:08;28.90;65.60
35894;DHT22;21994;48.204;16.516;2023-05-29T13:45:34;28.30;62.90
35894;DHT22;21994;48.204;16.516;2023-05-29T13:48:01;28.70;68.20
35894;DHT22;21994;48.204;16.516;2023-05-29T13:50:27;29.10;67.70
35894;DHT22;21994;48.204;16.516;2023-05-29T13:52:53;29.20;65.40
35894;DHT22;21994;48.204;16.516;2023-05-29T13:55:18;29.30;65.90
35894;DHT22;21994;48.204;16.516;2023-05-29T13:57:44;28.40;63.20
35894;DHT22;21994;48.204;16.516;2023-05-29T14:00:14;28.60;68.00
35894;DHT22;21994;48.204;16.516;2023-05-29T14:02:40;28.90;64.30
35894;DHT22;21994;48.204;16.516;2023-05-29T14:05:07;28.50;63.00
35894;DHT22;21994;48.204;16.516;2023-05-29T14:07:34;28.70;64.40
35894;DHT22;21994;48.204;16.516;2023-05-29T14:10:00;28.60;65.00
35894;DHT22;21994;48.204;16.516;2023-05-29T14:12:26;28.50;63.00
35894;DHT22;21994;48.204;16.516;2023-05-29T14:14:52;28.60;62.80
35894;DHT22;21994;48.204;16.516;2023-05-29T14:17:18;28.90;63.60
35894;DHT22;21994;48.204;16.516;2023-05-29T14:19:44;29.10;66.20
35894;DHT22;21994;48.204;16.516;2023-05-29T14:22:13;29.20;63.40
35894;DHT22;21994;48.204;16.516;2023-05-29T14:24:39;29.00;62.20
35894;DHT22;21994;48.204;16.516;2023-05-29T14:27:05;29.10;63.50
35894;DHT22;21994;48.204;16.516;2023-05-29T14:29:31;29.20;61.10
35894;DHT22;21994;48.204;16.516;2023-05-29T14:31:57;28.60;60.30
35894;DHT22;21994;48.204;16.516;2023-05-29T14:34:23;28.90;62.20
35894;DHT22;21994;48.204;16.516;2023-05-29T14:36:49;29.00;62.90
35894;DHT22;21994;48.204;16.516;2023-05-29T14:39:15;29.00;62.90
35894;DHT22;21994;48.204;16.516;2023-05-29T14:41:41;29.00;66.20
35894;DHT22;21994;48.204;16.516;2023-05-29T14:44:07;29.10;63.00
35894;DHT22;21994;48.204;16.516;2023-05-29T14:46:32;29.10;64.10
35894;DHT22;21994;48.204;16.516;2023-05-29T14:48:59;29.00;63.40
35894;DHT22;21994;48.204;16.516;2023-05-29T14:51:26;29.10;62.50
35894;DHT22;21994;48.204;16.516;2023-05-29T14:53:52;29.30;63.20
35894;DHT22;21994;48.204;16.516;2023-05-29T14:56:18;28.90;63.40
35894;DHT22;21994;48.204;16.516;2023-05-29T14:58:47;29.10;62.80
35894;DHT22;21994;48.204;16.516;2023-05-29T15:01:19;29.50;62.10
35894;DHT22;21994;48.204;16.516;2023-05-29T15:03:45;29.30;61.50
35894;DHT22;21994;48.204;16.516;2023-05-29T15:06:12;29.10;62.70
35894;DHT22;21994;48.204;16.516;2023-05-29T15:08:39;29.20;63.30
35894;DHT22;21994;48.204;16.516;2023-05-29T15:11:07;29.20;59.50
35894;DHT22;21994;48.204;16.516;2023-05-29T15:13:35;29.30;62.20
35894;DHT22;21994;48.204;16.516;2023-05-29T15:16:01;29.30;62.20
35894;DHT22;21994;48.204;16.516;2023-05-29T15:18:32;29.10;60.80
35894;DHT22;21994;48.204;16.516;2023-05-29T15:20:58;29.10;61.20
35894;DHT22;21994;48.204;16.516;2023-05-29T15:23:34;29.20;60.80
35894;DHT22;21994;48.204;16.516;2023-05-29T15:26:01;29.00;59.40
35894;DHT22;21994;48.204;16.516;2023-05-29T15:28:28;29.00;60.90
35894;DHT22;21994;48.204;16.516;2023-05-29T15:30:54;29.10;63.00
35894;DHT22;21994;48.204;16.516;2023-05-29T15:33:20;29.10;60.20
35894;DHT22;21994;48.204;16.516;2023-05-29T15:35:46;29.10;61.20
35894;DHT22;21994;48.204;16.516;2023-05-29T15:38:12;28.90;59.80
35894;DHT22;21994;48.204;16.516;2023-05-29T15:40:39;28.50;60.80
35894;DHT22;21994;48.204;16.516;2023-05-29T15:43:06;28.50;62.20
35894;DHT22;21994;48.204;16.516;2023-05-29T15:45:32;28.50;60.50
35894;DHT22;21994;48.204;16.516;2023-05-29T15:47:57;28.60;59.50